Time;durP1;ratioP1;P1;durP2;ratioP2;P2;SDS_P1;SDS_P2;PMS_P1;PMS_P2;Temp;Humidity;BMP_temperature;BMP_pressure;BME280_temperature;BME280_humidity;BME280_pressure;Samples;Min_cycle;Max_cycle;Signal;HPM_P1;HPM_P2
2023/02/04 00:01:40;;;;;;;24.83;3.53;;;8.90;99.90;;;;;;4993737;28;20093;-78
2023/02/04 00:04:06;;;;;;;21.25;3.72;;;8.90;99.90;;;;;;4994049;28;20026;-79
2023/02/04 00:06:32;;;;;;;21.90;3.33;;;8.90;99.90;;;;;;4994521;28;20097;-79
2023/02/04 00:08:57;;;;;;;25.42;3.28;;;9.00;99.90;;;;;;4993851;28;20129;-79
2023/02/04 00:11:23;;;;;;;31.83;3.92;;;9.10;99.70;;;;;;4993515;28;20030;-80
2023/02/04 00:13:49;;;;;;;18.85;3.50;;;9.00;99.60;;;;;;4993559;28;20026;-79
2023/02/04 00:16:14;;;;;;;27.60;3.90;;;9.00;99.60;;;;;;4993420;28;20050;-79
2023/02/04 00:18:40;;;;;;;11.77;2.58;;;8.80;99.40;;;;;;4993886;28;20088;-79
2023/02/04 00:21:05;;;;;;;29.20;2.55;;;8.80;99.40;;;;;;4993792;28;20096;-79
2023/02/04 00:23:31;;;;;;;27.52;2.85;;;8.80;99.50;;;;;;4992157;28;20034;-80
2023/02/04 00:25:57;;;;;;;20.80;2.63;;;8.80;99.50;;;;;;4992041;28;20049;-79
2023/02/04 00:28:22;;;;;;;23.20;2.85;;;8.80;99.50;;;;;;4992871;28;20188;-79
2023/02/04 00:30:48;;;;;;;23.88;2.35;;;8.80;99.50;;;;;;4992496;28;20116;-78
2023/02/04 00:33:15;;;;;;;19.42;2.60;;;8.80;99.70;;;;;;4993128;28;20031;-79
2023/02/04 00:35:40;;;;;;;13.98;2.40;;;8.90;99.80;;;;;;4993001;28;20037;-78
2023/02/04 00:38:06;;;;;;;14.23;2.00;;;8.80;99.70;;;;;;4991888;28;20027;-78
2023/02/04 00:40:32;;;;;;;16.40;2.20;;;8.80;99.50;;;;;;4993125;28;20113;-79
2023/02/04 00:42:58;;;;;;;14.40;2.88;;;8.80;99.50;;;;;;4992878;28;20386;-78
2023/02/04 00:45:24;;;;;;;16.98;2.05;;;8.80;99.50;;;;;;4993338;28;20026;-79
2023/02/04 00:47:50;;;;;;;13.00;2.30;;;8.80;99.50;;;;;;4992865;28;20023;-79
2023/02/04 00:50:15;;;;;;;15.77;2.63;;;8.80;99.60;;;;;;4992943;28;20085;-79
2023/02/04 00:52:41;;;;;;;13.60;2.17;;;8.70;99.60;;;;;;4992611;28;20034;-78
2023/02/04 00:55:09;;;;;;;14.75;1.88;;;8.60;99.90;;;;;;4992677;28;20053;-78
2023/02/04 00:57:35;;;;;;;15.05;2.80;;;8.60;99.90;;;;;;4993286;28;20093;-78
2023/02/04 01:00:01;;;;;;;15.95;2.85;;;8.60;99.90;;;;;;4991365;28;20041;-78
2023/02/04 01:02:26;;;;;;;11.18;2.22;;;8.80;99.90;;;;;;4991462;28;20034;-78
2023/02/04 01:04:52;;;;;;;7.40;0.95;;;8.60;99.90;;;;;;4991466;28;20680;-77
2023/02/04 01:07:18;;;;;;;4.45;0.70;;;8.60;99.70;;;;;;4992767;28;20030;-78
2023/02/04 01:09:44;;;;;;;8.93;2.45;;;8.60;99.60;;;;;;4992815;28;20030;-77
2023/02/04 01:12:09;;;;;;;6.07;0.70;;;8.80;99.60;;;;;;4992193;28;20026;-78
2023/02/04 01:14:36;;;;;;;8.15;1.20;;;8.60;99.20;;;;;;4991728;28;20100;-79
2023/02/04 01:17:02;;;;;;;6.65;1.08;;;8.60;99.20;;;;;;4992708;28;20392;-78
2023/02/04 01:19:27;;;;;;;5.18;0.77;;;8.60;99.20;;;;;;4991110;28;20034;-78
2023/02/04 01:21:53;;;;;;;4.32;0.85;;;8.60;99.10;;;;;;4992523;28;20030;-77
2023/02/04 01:24:19;;;;;;;4.40;0.65;;;8.60;99.20;;;;;;4991139;28;20026;-80
2023/02/04 01:26:44;;;;;;;6.28;0.80;;;8.70;99.30;;;;;;4990925;28;20084;-77
2023/02/04 01:29:10;;;;;;;2.78;0.73;;;8.60;99.10;;;;;;4992427;28;20484;-78
2023/02/04 01:31:36;;;;;;;5.88;1.00;;;8.60;99.20;;;;;;4992662;28;20038;-79
2023/02/04 01:34:02;;;;;;;3.88;0.68;;;8.60;99.00;;;;;;4992892;28;20516;-77
2023/02/04 01:36:28;;;;;;;1.48;0.57;;;8.70;99.00;;;;;;4992312;28;20014;-79
2023/02/04 01:38:53;;;;;;;2.05;0.60;;;8.80;99.10;;;;;;4991244;28;20061;-80
2023/02/04 01:41:19;;;;;;;3.25;0.75;;;8.60;99.10;;;;;;4990721;28;20044;-78
2023/02/04 01:43:46;;;;;;;7.60;0.82;;;8.70;99.10;;;;;;4991854;28;20054;-77
2023/02/04 01:46:12;;;;;;;3.95;0.50;;;8.60;99.00;;;;;;4991802;28;20026;-78
2023/02/04 01:48:38;;;;;;;4.90;1.00;;;8.50;99.20;;;;;;4992124;28;20025;-79
2023/02/04 01:51:10;;;;;;;7.43;0.70;;;8.60;99.20;;;;;;4990570;28;20514;-78
2023/02/04 01:53:36;;;;;;;2.65;0.70;;;8.70;99.40;;;;;;4991747;28;20030;-78
2023/02/04 01:56:14;;;;;;;2.55;0.60;;;8.50;99.30;;;;;;4991811;28;20474;-79
2023/02/04 01:58:40;;;;;;;6.60;0.90;;;8.60;99.40;;;;;;4991521;28;20368;-78
2023/02/04 02:01:12;;;;;;;3.10;0.40;;;8.60;99.40;;;;;;4991765;28;20030;-79
2023/02/04 02:03:38;;;;;;;2.20;0.38;;;8.50;99.50;;;;;;4991145;28;20022;-80
2023/02/04 02:06:08;;;;;;;0.90;0.50;;;8.50;99.50;;;;;;4990443;28;20049;-79
2023/02/04 02:08:37;;;;;;;4.72;1.10;;;8.40;99.30;;;;;;4991454;28;20045;-80
2023/02/04 02:11:03;;;;;;;2.50;0.65;;;8.50;99.40;;;;;;4991386;28;20352;-78
2023/02/04 02:13:29;;;;;;;1.50;0.38;;;8.40;99.20;;;;;;4991027;28;20040;-78
2023/02/04 02:15:55;;;;;;;1.17;0.63;;;8.50;99.20;;;;;;4991549;28;20030;-78
2023/02/04 02:18:21;;;;;;;3.88;0.77;;;8.40;99.00;;;;;;4991300;28;20073;-77
2023/02/04 02:20:46;;;;;;;1.02;0.40;;;8.40;99.10;;;;;;4991223;28;20061;-79
2023/02/04 02:23:25;;;;;;;1.60;0.60;;;8.30;98.70;;;;;;4991250;28;20052;-77
2023/02/04 02:25:51;;;;;;;1.50;0.47;;;8.30;98.80;;;;;;4992197;28;20034;-78
2023/02/04 02:28:20;;;;;;;4.60;0.75;;;8.30;98.80;;;;;;4994902;28;20045;-79
2023/02/04 02:30:48;;;;;;;2.22;0.75;;;8.20;98.60;;;;;;4995812;28;20014;-78
2023/02/04 02:33:16;;;;;;;2.58;0.73;;;8.20;98.60;;;;;;4995253;28;20326;-79
2023/02/04 02:35:43;;;;;;;1.98;0.73;;;8.20;98.70;;;;;;5002289;28;20491;-79
2023/02/04 02:38:12;;;;;;;4.65;0.68;;;8.20;98.70;;;;;;5014868;28;20037;-78
2023/02/04 02:40:38;;;;;;;1.23;0.60;;;8.20;98.80;;;;;;5014635;28;20030;-78
2023/02/04 02:43:05;;;;;;;1.05;0.40;;;8.10;98.70;;;;;;5014462;28;20022;-77
2023/02/04 02:45:32;;;;;;;2.78;0.60;;;8.10;98.80;;;;;;5014265;28;20036;-78
2023/02/04 02:48:02;;;;;;;1.30;0.40;;;8.00;98.90;;;;;;5014830;28;20032;-80
2023/02/04 02:50:30;;;;;;;1.90;0.60;;;8.00;99.00;;;;;;5014209;28;20030;-80
2023/02/04 02:52:55;;;;;;;1.42;0.73;;;8.00;99.00;;;;;;5014711;28;20030;-79
2023/02/04 02:55:24;;;;;;;1.45;0.52;;;8.00;99.00;;;;;;5014793;28;20030;-79
2023/02/04 02:57:51;;;;;;;4.13;0.75;;;7.80;99.00;;;;;;5014841;28;20045;-78
2023/02/04 03:00:22;;;;;;;3.70;0.80;;;7.80;98.90;;;;;;5014240;28;20403;-78
2023/02/04 03:02:58;;;;;;;1.67;0.77;;;7.70;99.20;;;;;;5014043;28;20030;-78
2023/02/04 03:05:25;;;;;;;3.97;0.93;;;7.70;99.30;;;;;;5014300;28;20171;-78
2023/02/04 03:07:51;;;;;;;4.93;0.60;;;7.70;99.30;;;;;;5013962;28;20456;-78
2023/02/04 03:10:17;;;;;;;1.48;0.50;;;7.60;99.10;;;;;;5013950;28;20038;-77
2023/02/04 03:12:44;;;;;;;0.70;0.60;;;7.60;99.30;;;;;;5014421;28;20040;-78
2023/02/04 03:15:10;;;;;;;4.53;0.65;;;7.60;99.20;;;;;;5013093;28;20269;-77
2023/02/04 03:17:36;;;;;;;1.42;0.70;;;7.60;99.20;;;;;;5014719;28;20125;-78
2023/02/04 03:20:03;;;;;;;1.30;0.60;;;7.60;99.20;;;;;;5015790;28;20057;-77
2023/02/04 03:22:29;;;;;;;2.53;1.13;;;7.50;99.10;;;;;;5013060;28;20504;-79
2023/02/04 03:24:57;;;;;;;1.05;0.75;;;7.50;99.20;;;;;;5013247;28;20350;-76
2023/02/04 03:27:23;;;;;;;0.73;0.60;;;7.40;99.20;;;;;;5012901;28;20065;-78
2023/02/04 03:29:49;;;;;;;2.35;0.77;;;7.40;99.40;;;;;;5014132;28;20038;-78
2023/02/04 03:32:14;;;;;;;3.60;0.60;;;7.40;99.30;;;;;;5013977;28;20030;-78
2023/02/04 03:34:40;;;;;;;2.72;1.00;;;7.30;99.30;;;;;;5014035;28;20037;-79
2023/02/04 03:37:06;;;;;;;4.22;0.80;;;7.50;99.50;;;;;;5013301;28;20053;-78
2023/02/04 03:39:31;;;;;;;3.58;1.05;;;7.30;99.30;;;;;;5013343;28;20450;-78
2023/02/04 03:41:57;;;;;;;3.85;0.98;;;7.30;99.30;;;;;;5013451;28;20037;-77
2023/02/04 03:44:25;;;;;;;4.80;1.00;;;7.30;99.30;;;;;;5012227;28;20113;-78
2023/02/04 03:46:54;;;;;;;1.15;0.90;;;7.30;99.20;;;;;;5013533;28;20108;-78
2023/02/04 03:49:20;;;;;;;4.10;1.05;;;7.40;99.30;;;;;;5013338;28;20499;-77
2023/02/04 03:51:46;;;;;;;2.65;0.93;;;7.40;99.20;;;;;;5013755;28;20032;-77
2023/02/04 03:54:12;;;;;;;2.78;1.00;;;7.30;99.30;;;;;;5013340;28;20033;-77
2023/02/04 03:56:38;;;;;;;7.22;1.13;;;7.40;99.30;;;;;;5013200;28;20030;-77
2023/02/04 03:59:04;;;;;;;9.10;0.73;;;7.40;99.20;;;;;;5013129;28;20045;-78
2023/02/04 04:01:29;;;;;;;2.17;0.93;;;7.40;99.60;;;;;;5013221;28;20029;-78
2023/02/04 04:03:55;;;;;;;4.07;1.45;;;7.50;99.40;;;;;;5013332;28;20053;-79
2023/02/04 04:06:21;;;;;;;1.17;0.65;;;7.50;99.30;;;;;;5013026;28;20284;-79
2023/02/04 04:08:46;;;;;;;4.82;0.90;;;7.40;99.20;;;;;;5013191;28;20380;-79
2023/02/04 04:11:12;;;;;;;2.85;1.15;;;7.60;99.40;;;;;;5012023;28;20065;-79
2023/02/04 04:13:38;;;;;;;1.33;0.60;;;7.40;99.20;;;;;;5012967;28;20120;-78
2023/02/04 04:16:03;;;;;;;1.15;0.70;;;7.30;99.10;;;;;;5012910;28;20044;-78
2023/02/04 04:18:31;;;;;;;0.85;0.65;;;7.30;99.50;;;;;;5013274;28;20018;-78
2023/02/04 04:20:58;;;;;;;3.97;0.88;;;7.20;99.60;;;;;;5012721;28;20040;-77
2023/02/04 04:23:24;;;;;;;2.67;1.00;;;7.10;99.80;;;;;;5012787;28;20037;-79
2023/02/04 04:25:50;;;;;;;4.07;1.33;;;7.00;99.90;;;;;;5011408;28;20040;-77
2023/02/04 04:28:15;;;;;;;2.40;0.90;;;7.00;99.90;;;;;;5012380;28;20046;-77
2023/02/04 04:30:41;;;;;;;2.35;0.98;;;6.80;99.90;;;;;;5011724;28;20405;-77
2023/02/04 04:33:07;;;;;;;2.50;0.95;;;6.90;99.90;;;;;;5012336;28;20038;-77
2023/02/04 04:35:33;;;;;;;3.47;0.95;;;6.70;99.90;;;;;;5012392;28;20037;-77
2023/02/04 04:38:02;;;;;;;4.45;0.73;;;6.70;99.90;;;;;;5011180;28;20109;-77
2023/02/04 04:40:29;;;;;;;3.65;0.70;;;6.50;99.90;;;;;;5012287;28;20488;-78
2023/02/04 04:42:55;;;;;;;2.78;0.70;;;6.50;99.90;;;;;;5011737;28;20116;-77
2023/02/04 04:45:20;;;;;;;10.75;1.05;;;6.50;99.90;;;;;;5012301;28;20053;-77
2023/02/04 04:47:46;;;;;;;2.13;0.80;;;6.60;99.90;;;;;;5013948;28;20499;-77
2023/02/04 04:50:12;;;;;;;1.13;0.60;;;6.50;99.90;;;;;;5016900;28;20460;-77
2023/02/04 04:52:38;;;;;;;2.05;0.70;;;6.50;99.90;;;;;;5013813;28;20034;-77
2023/02/04 04:55:04;;;;;;;4.22;0.77;;;6.50;99.90;;;;;;5012437;28;20092;-78
2023/02/04 04:57:30;;;;;;;1.25;0.60;;;6.40;99.90;;;;;;5012951;28;20032;-77
2023/02/04 04:59:56;;;;;;;2.72;0.60;;;6.30;99.90;;;;;;5012273;28;20371;-77
2023/02/04 05:02:21;;;;;;;5.97;0.90;;;6.20;99.90;;;;;;5012015;28;20358;-76
2023/02/04 05:04:47;;;;;;;3.72;0.80;;;6.10;99.90;;;;;;5012009;28;20045;-75
2023/02/04 05:07:13;;;;;;;2.08;0.82;;;6.00;99.90;;;;;;5011993;28;20034;-76
2023/02/04 05:09:38;;;;;;;2.53;0.75;;;6.00;99.90;;;;;;5012470;28;20084;-77
2023/02/04 05:12:04;;;;;;;3.00;1.00;;;6.10;99.90;;;;;;5011895;28;20044;-76
2023/02/04 05:14:30;;;;;;;2.10;0.80;;;5.90;99.90;;;;;;5011870;28;20026;-76
2023/02/04 05:16:56;;;;;;;3.00;0.90;;;5.80;99.90;;;;;;5011632;28;20083;-75
2023/02/04 05:19:22;;;;;;;3.83;0.80;;;5.90;99.90;;;;;;5011991;28;20029;-76
2023/02/04 05:21:47;;;;;;;2.42;0.65;;;5.80;99.90;;;;;;5012164;28;20015;-76
2023/02/04 05:24:13;;;;;;;4.50;0.98;;;5.70;99.90;;;;;;5010460;28;20387;-76
2023/02/04 05:26:38;;;;;;;6.30;1.17;;;5.70;99.90;;;;;;5011618;28;20057;-76
2023/02/04 05:29:04;;;;;;;6.10;1.00;;;5.60;99.90;;;;;;5011271;28;20053;-76
2023/02/04 05:31:30;;;;;;;1.52;0.68;;;5.70;99.90;;;;;;5010622;28;20379;-78
2023/02/04 05:33:56;;;;;;;3.47;0.70;;;5.70;99.90;;;;;;5011840;28;20099;-78
2023/02/04 05:36:21;;;;;;;2.65;0.98;;;5.80;99.90;;;;;;5011778;28;20041;-78
2023/02/04 05:38:47;;;;;;;2.42;1.20;;;5.70;99.90;;;;;;5011538;28;20460;-79
2023/02/04 05:41:13;;;;;;;1.83;0.95;;;5.70;99.90;;;;;;5011794;28;20057;-77
2023/02/04 05:43:38;;;;;;;2.78;1.02;;;5.80;99.90;;;;;;5011723;28;20033;-78
2023/02/04 05:46:04;;;;;;;1.75;1.10;;;5.90;99.90;;;;;;5011275;28;20364;-78
2023/02/04 05:48:30;;;;;;;5.50;1.20;;;5.90;99.90;;;;;;5011701;28;20382;-78
2023/02/04 05:50:56;;;;;;;2.35;1.00;;;5.90;99.90;;;;;;5011290;28;20041;-77
2023/02/04 05:53:22;;;;;;;1.25;0.75;;;5.60;99.90;;;;;;5011250;28;20034;-76
2023/02/04 05:55:47;;;;;;;3.03;0.95;;;5.60;99.90;;;;;;5011107;28;20352;-77
2023/02/04 05:58:13;;;;;;;3.13;1.33;;;5.50;99.90;;;;;;5009912;28;20333;-77
2023/02/04 06:00:39;;;;;;;2.05;0.57;;;5.40;99.90;;;;;;5010222;28;20100;-77
2023/02/04 06:03:04;;;;;;;1.17;0.80;;;5.30;99.90;;;;;;5010932;28;20044;-77
2023/02/04 06:05:31;;;;;;;2.30;1.02;;;5.30;99.90;;;;;;5009909;28;20030;-76
2023/02/04 06:07:57;;;;;;;3.03;1.00;;;5.30;99.90;;;;;;5010775;28;20364;-76
2023/02/04 06:10:22;;;;;;;4.53;1.17;;;5.40;99.90;;;;;;5009545;28;20040;-76
2023/02/04 06:12:48;;;;;;;1.88;0.98;;;5.30;99.90;;;;;;5011309;28;20033;-77
2023/02/04 06:15:14;;;;;;;2.72;0.90;;;5.40;99.90;;;;;;5009840;28;20038;-77
2023/02/04 06:17:40;;;;;;;1.27;0.68;;;5.40;99.90;;;;;;5010828;28;20129;-76
2023/02/04 06:20:06;;;;;;;4.00;1.30;;;5.20;99.90;;;;;;5010622;28;20033;-77
2023/02/04 06:22:32;;;;;;;3.95;0.70;;;5.20;99.90;;;;;;5009970;28;20399;-78
2023/02/04 06:24:58;;;;;;;6.18;1.40;;;5.10;99.90;;;;;;5010875;28;20095;-76
2023/02/04 06:27:23;;;;;;;1.95;1.10;;;5.10;99.90;;;;;;5011069;28;20041;-78
2023/02/04 06:29:53;;;;;;;4.95;1.05;;;4.90;99.90;;;;;;5009505;28;20037;-78
2023/02/04 06:32:20;;;;;;;3.28;1.15;;;5.00;99.90;;;;;;5010775;28;20034;-77
2023/02/04 06:34:46;;;;;;;4.85;0.90;;;5.00;99.90;;;;;;5009620;28;20452;-77
2023/02/04 06:37:12;;;;;;;1.25;0.80;;;5.00;99.90;;;;;;5010696;28;20427;-77
2023/02/04 06:39:38;;;;;;;2.28;0.98;;;5.00;99.90;;;;;;5010847;28;20326;-78
2023/02/04 06:42:04;;;;;;;3.88;0.93;;;4.90;99.90;;;;;;5010690;28;20038;-78
2023/02/04 06:44:30;;;;;;;3.50;1.35;;;4.90;99.90;;;;;;5010649;28;20033;-75
2023/02/04 06:46:56;;;;;;;1.58;0.90;;;4.90;99.90;;;;;;5010672;28;20038;-76
2023/02/04 06:49:23;;;;;;;2.83;1.40;;;4.80;99.90;;;;;;5010483;28;20419;-77
2023/02/04 06:51:49;;;;;;;2.72;1.13;;;4.70;99.90;;;;;;5011364;28;20100;-77
2023/02/04 06:54:15;;;;;;;5.50;1.60;;;4.70;99.90;;;;;;5010540;28;20540;-76
2023/02/04 06:56:42;;;;;;;4.68;1.20;;;4.90;99.90;;;;;;5010078;28;20030;-78
2023/02/04 06:59:08;;;;;;;3.60;1.23;;;4.80;99.90;;;;;;5009423;28;20474;-78
2023/02/04 07:01:34;;;;;;;4.75;1.30;;;4.80;99.90;;;;;;5009235;28;20042;-78
2023/02/04 07:04:01;;;;;;;2.20;1.33;;;4.80;99.90;;;;;;5011146;28;20403;-78
2023/02/04 07:06:26;;;;;;;4.88;1.25;;;4.80;99.90;;;;;;5010908;28;20092;-78
2023/02/04 07:08:53;;;;;;;5.15;1.50;;;4.70;99.90;;;;;;5010567;28;20034;-78
2023/02/04 07:11:19;;;;;;;5.85;1.40;;;4.60;99.90;;;;;;5010679;28;20030;-78
2023/02/04 07:13:44;;;;;;;1.52;1.00;;;4.70;99.90;;;;;;5014118;28;20439;-79
2023/02/04 07:16:10;;;;;;;2.22;1.20;;;4.60;99.90;;;;;;5014167;28;20026;-79
2023/02/04 07:18:35;;;;;;;6.53;3.45;;;4.60;99.90;;;;;;5014722;28;20025;-79
2023/02/04 07:21:01;;;;;;;8.02;2.13;;;4.60;99.90;;;;;;5013487;28;20092;-80
2023/02/04 07:23:27;;;;;;;3.67;1.05;;;4.70;99.90;;;;;;5013195;28;20034;-78
2023/02/04 07:25:55;;;;;;;12.88;4.00;;;4.80;99.90;;;;;;5014513;28;20483;-79
2023/02/04 07:28:21;;;;;;;4.25;1.00;;;4.80;99.90;;;;;;5014030;28;20069;-76
2023/02/04 07:30:46;;;;;;;3.17;1.50;;;4.70;99.90;;;;;;5014101;28;20072;-79
2023/02/04 07:33:12;;;;;;;2.75;1.73;;;4.80;99.90;;;;;;5014274;28;20464;-80
2023/02/04 07:35:38;;;;;;;4.15;1.55;;;4.90;99.90;;;;;;5013936;28;20384;-81
2023/02/04 07:38:04;;;;;;;2.15;1.33;;;4.90;99.90;;;;;;5014223;28;20627;-74
2023/02/04 07:40:30;;;;;;;5.45;1.63;;;5.00;99.90;;;;;;5013150;28;20113;-74
2023/02/04 07:42:55;;;;;;;2.47;1.30;;;5.10;99.90;;;;;;5013857;28;20441;-74
2023/02/04 07:45:21;;;;;;;2.35;1.27;;;5.20;99.90;;;;;;5012387;28;20030;-73
2023/02/04 07:47:47;;;;;;;7.80;3.83;;;5.20;99.90;;;;;;5011885;28;20423;-72
2023/02/04 07:50:13;;;;;;;2.65;1.60;;;5.30;99.90;;;;;;5011741;28;20080;-71
2023/02/04 07:52:38;;;;;;;3.88;1.30;;;5.30;99.90;;;;;;5012832;28;20092;-71
2023/02/04 07:55:05;;;;;;;2.47;1.38;;;5.20;99.90;;;;;;5013091;28;20033;-73
2023/02/04 07:57:30;;;;;;;3.00;1.20;;;5.20;99.90;;;;;;5013305;28;20022;-72
2023/02/04 07:59:56;;;;;;;2.17;1.55;;;5.40;99.90;;;;;;5012606;28;20029;-72
2023/02/04 08:02:22;;;;;;;2.85;1.65;;;5.40;99.90;;;;;;5011529;28;20037;-72
2023/02/04 08:04:48;;;;;;;6.18;1.58;;;5.40;99.90;;;;;;5012688;28;20057;-72
2023/02/04 08:07:13;;;;;;;3.60;1.85;;;5.60;99.90;;;;;;5011561;28;20088;-72
2023/02/04 08:09:39;;;;;;;3.78;1.60;;;5.80;99.90;;;;;;5013003;28;20041;-72
2023/02/04 08:12:05;;;;;;;4.30;1.73;;;5.90;99.90;;;;;;5012764;28;20117;-72
2023/02/04 08:14:30;;;;;;;4.13;1.60;;;6.00;99.90;;;;;;5012677;28;20030;-73
2023/02/04 08:16:56;;;;;;;4.07;1.45;;;6.00;99.90;;;;;;5012687;28;20050;-72
2023/02/04 08:19:22;;;;;;;3.92;1.40;;;6.10;99.90;;;;;;5012733;28;20511;-73
2023/02/04 08:21:47;;;;;;;4.57;2.00;;;6.30;99.90;;;;;;5013074;28;20026;-76
2023/02/04 08:24:14;;;;;;;7.38;2.80;;;6.30;99.90;;;;;;5012755;28;20406;-72
2023/02/04 08:26:41;;;;;;;6.53;2.20;;;6.30;99.90;;;;;;5012538;28;20037;-74
2023/02/04 08:29:08;;;;;;;3.10;1.67;;;6.40;99.90;;;;;;5012155;28;20046;-72
2023/02/04 08:31:35;;;;;;;12.00;2.40;;;6.50;99.90;;;;;;5012364;28;20473;-72
2023/02/04 08:34:00;;;;;;;5.50;1.50;;;6.50;99.90;;;;;;5012538;28;20105;-71
2023/02/04 08:36:26;;;;;;;2.80;1.75;;;6.50;99.90;;;;;;5012384;28;20367;-72
2023/02/04 08:38:52;;;;;;;2.88;1.60;;;6.50;99.90;;;;;;5012449;28;20531;-71
2023/02/04 08:41:18;;;;;;;3.28;1.42;;;6.60;99.90;;;;;;5012344;28;20060;-73
2023/02/04 08:43:43;;;;;;;2.25;1.33;;;6.70;99.90;;;;;;5012237;28;20460;-73
2023/02/04 08:46:09;;;;;;;4.72;1.50;;;6.80;99.90;;;;;;5012209;28;20105;-71
2023/02/04 08:48:34;;;;;;;2.88;1.60;;;7.00;99.90;;;;;;5012399;28;20034;-73
2023/02/04 08:51:00;;;;;;;5.88;1.83;;;7.20;99.40;;;;;;5012018;28;20092;-72
2023/02/04 08:53:26;;;;;;;4.18;2.03;;;7.30;99.50;;;;;;5011952;28;20480;-73
2023/02/04 08:55:51;;;;;;;3.72;1.50;;;7.60;99.50;;;;;;5011951;28;20029;-73
2023/02/04 08:58:17;;;;;;;3.45;1.80;;;8.00;99.30;;;;;;5011977;28;20064;-73
2023/02/04 09:00:43;;;;;;;3.00;2.00;;;8.20;98.60;;;;;;5012281;28;20467;-73
2023/02/04 09:03:08;;;;;;;4.10;1.48;;;8.40;98.60;;;;;;5011593;28;20420;-74
2023/02/04 09:05:34;;;;;;;6.95;1.60;;;8.50;98.30;;;;;;5010639;28;20116;-74
2023/02/04 09:08:00;;;;;;;2.25;1.50;;;8.60;97.90;;;;;;5010486;28;20030;-75
2023/02/04 09:10:25;;;;;;;5.30;1.63;;;8.80;97.50;;;;;;5011379;28;20100;-74
2023/02/04 09:12:55;;;;;;;1.83;1.40;;;8.80;97.40;;;;;;5012328;28;20456;-74
2023/02/04 09:15:23;;;;;;;2.78;1.63;;;8.80;97.30;;;;;;5010331;28;20034;-75
2023/02/04 09:17:49;;;;;;;4.30;1.80;;;9.10;97.00;;;;;;5011402;28;20041;-72
2023/02/04 09:20:15;;;;;;;2.50;1.27;;;9.10;96.10;;;;;;5011389;28;20045;-72
2023/02/04 09:22:40;;;;;;;1.98;1.08;;;9.10;96.00;;;;;;5011400;28;20375;-73
2023/02/04 09:25:07;;;;;;;3.60;1.20;;;9.20;95.20;;;;;;5011310;28;20057;-74
2023/02/04 09:27:32;;;;;;;6.63;1.25;;;9.00;95.00;;;;;;5011581;28;20077;-73
2023/02/04 09:29:58;;;;;;;3.45;1.40;;;8.90;95.00;;;;;;5011130;28;20094;-74
2023/02/04 09:32:23;;;;;;;6.63;1.10;;;8.90;94.80;;;;;;5011361;28;20029;-73
2023/02/04 09:34:51;;;;;;;5.22;1.30;;;8.70;94.70;;;;;;5010691;28;20073;-75
2023/02/04 09:37:16;;;;;;;2.97;1.20;;;8.70;95.10;;;;;;5011199;28;20042;-74
2023/02/04 09:39:42;;;;;;;3.67;1.20;;;8.80;95.30;;;;;;5011620;28;20345;-75
2023/02/04 09:42:12;;;;;;;12.45;4.75;;;8.80;95.00;;;;;;5010892;28;20054;-74
2023/02/04 09:44:38;;;;;;;8.18;3.67;;;8.70;94.40;;;;;;5010316;28;20401;-72
2023/02/04 09:47:04;;;;;;;3.72;1.10;;;8.60;95.00;;;;;;5009615;28;20479;-73
2023/02/04 09:49:31;;;;;;;4.63;1.27;;;8.60;94.80;;;;;;5009594;28;20184;-73
2023/02/04 09:51:57;;;;;;;4.70;0.70;;;8.40;94.30;;;;;;5011249;28;20037;-72
2023/02/04 09:54:24;;;;;;;4.70;0.90;;;8.40;94.30;;;;;;5010958;28;20033;-74
2023/02/04 09:56:51;;;;;;;2.17;0.70;;;8.40;94.30;;;;;;5010896;28;20504;-72
2023/02/04 09:59:19;;;;;;;3.00;0.53;;;8.50;93.90;;;;;;5009945;28;20038;-76
2023/02/04 10:02:06;;;;;;;1.67;0.90;;;8.40;93.80;;;;;;5010739;28;20119;-75
2023/02/04 10:04:32;;;;;;;29.40;11.25;;;8.40;93.90;;;;;;5025814;28;20040;-77
2023/02/04 10:06:58;;;;;;;4.78;1.58;;;8.20;94.00;;;;;;5011157;28;20029;-77
2023/02/04 10:09:24;;;;;;;4.20;1.00;;;8.30;94.30;;;;;;5009571;28;20029;-78
2023/02/04 10:11:49;;;;;;;1.27;0.82;;;8.20;94.20;;;;;;5010057;28;20057;-77
2023/02/04 10:14:20;;;;;;;1.45;0.63;;;8.20;94.50;;;;;;5010524;28;20029;-77
2023/02/04 10:16:52;;;;;;;4.55;0.65;;;8.20;93.70;;;;;;5011646;28;20074;-76
2023/02/04 10:19:18;;;;;;;2.08;0.68;;;8.00;93.40;;;;;;5010940;28;20030;-77
2023/02/04 10:21:45;;;;;;;1.33;0.60;;;8.00;93.60;;;;;;5014654;28;20324;-83
2023/02/04 10:24:16;;;;;;;2.20;0.80;;;8.20;94.00;;;;;;5017002;28;20113;-77
2023/02/04 10:26:42;;;;;;;3.03;0.63;;;8.50;94.10;;;;;;5011023;28;20149;-78
2023/02/04 10:29:16;;;;;;;2.08;0.70;;;8.60;93.80;;;;;;5010413;28;20531;-77
2023/02/04 10:31:47;;;;;;;3.78;1.00;;;8.80;93.40;;;;;;5010487;28;20034;-77
2023/02/04 10:34:19;;;;;;;3.10;0.85;;;9.00;93.60;;;;;;5011146;28;20125;-76
2023/02/04 10:36:48;;;;;;;2.38;0.60;;;9.10;93.30;;;;;;5011236;28;20053;-74
2023/02/04 10:39:17;;;;;;;2.83;0.80;;;9.30;92.80;;;;;;5010333;28;20087;-75
2023/02/04 10:41:54;;;;;;;2.45;0.82;;;9.50;92.70;;;;;;5010274;28;20072;-72
2023/02/04 10:44:29;;;;;;;2.33;1.00;;;10.00;92.20;;;;;;5010049;28;20041;-75
2023/02/04 10:47:20;;;;;;;1.13;0.75;;;10.20;92.00;;;;;;5011598;28;20357;-74
2023/02/04 10:49:54;;;;;;;4.63;1.10;;;11.30;91.40;;;;;;5013952;28;20038;-77
2023/02/04 10:52:23;;;;;;;2.25;0.80;;;11.70;91.20;;;;;;5014165;28;20026;-76
2023/02/04 10:54:49;;;;;;;2.00;0.70;;;11.40;89.50;;;;;;5014466;28;20087;-73
2023/02/04 10:57:25;;;;;;;2.05;0.90;;;11.90;89.50;;;;;;5013099;28;20030;-75
2023/02/04 10:59:54;;;;;;;1.88;0.75;;;12.20;87.90;;;;;;5012817;28;20029;-75
2023/02/04 11:02:26;;;;;;;3.05;0.82;;;11.90;86.90;;;;;;5012786;28;20034;-74
2023/02/04 11:04:51;;;;;;;1.33;0.80;;;11.40;87.80;;;;;;5014114;28;20117;-75
2023/02/04 11:07:18;;;;;;;2.20;0.77;;;11.10;87.80;;;;;;5012692;28;20539;-73
2023/02/04 11:09:44;;;;;;;1.85;0.63;;;10.80;87.60;;;;;;5014287;28;20045;-72
2023/02/04 11:12:36;;;;;;;0.65;0.52;;;10.30;87.10;;;;;;5013690;28;20022;-73
2023/02/04 11:15:02;;;;;;;1.35;0.60;;;10.00;88.00;;;;;;5013712;28;20080;-75
2023/02/04 11:17:32;;;;;;;1.70;0.65;;;9.90;90.10;;;;;;5012714;28;20467;-75
2023/02/04 11:20:00;;;;;;;17.75;7.28;;;9.70;89.90;;;;;;5012895;28;20503;-80
2023/02/04 11:22:42;;;;;;;2.92;1.17;;;9.40;90.30;;;;;;5012786;28;20117;-78
2023/02/04 11:25:30;;;;;;;7.25;1.10;;;9.30;90.30;;;;;;5013542;28;20073;-76
2023/02/04 11:27:56;;;;;;;2.95;1.00;;;9.30;91.10;;;;;;5013918;28;20053;-78
2023/02/04 11:30:22;;;;;;;6.90;1.27;;;9.40;91.10;;;;;;5013857;28;20029;-78
2023/02/04 11:33:05;;;;;;;1.58;0.93;;;9.40;91.40;;;;;;5013682;28;20030;-78
2023/02/04 11:35:31;;;;;;;27.15;11.02;;;9.30;91.10;;;;;;5013971;28;20026;-78
2023/02/04 11:37:58;;;;;;;8.30;3.30;;;9.30;91.10;;;;;;5013935;28;20037;-79
2023/02/04 11:40:36;;;;;;;2.17;1.23;;;9.40;91.40;;;;;;5013644;28;20405;-79
2023/02/04 11:43:12;;;;;;;3.20;0.93;;;9.60;91.50;;;;;;5013654;28;20029;-75
2023/02/04 11:45:39;;;;;;;1.58;0.80;;;9.40;92.20;;;;;;5014206;28;20483;-78
2023/02/04 11:48:17;;;;;;;4.70;1.17;;;9.50;91.10;;;;;;5012248;28;20030;-79
2023/02/04 11:51:00;;;;;;;1.17;0.65;;;9.90;91.30;;;;;;5013211;28;20048;-79
2023/02/04 11:53:33;;;;;;;4.13;0.70;;;9.80;90.30;;;;;;5013150;28;20524;-79
2023/02/04 11:55:59;;;;;;;1.40;0.80;;;9.80;90.40;;;;;;5012489;28;20121;-80
2023/02/04 11:58:29;;;;;;;2.40;0.90;;;10.40;90.40;;;;;;5011793;28;20092;-78
2023/02/04 12:00:55;;;;;;;4.00;1.00;;;11.30;89.90;;;;;;5013195;28;20392;-79
2023/02/04 12:03:22;;;;;;;2.92;0.80;;;11.70;88.40;;;;;;5013121;28;20457;-78
2023/02/04 12:05:48;;;;;;;4.40;1.70;;;12.10;86.90;;;;;;5013246;28;20034;-78
2023/02/04 12:08:24;;;;;;;2.75;0.95;;;12.10;85.40;;;;;;5013274;28;20034;-77
2023/02/04 12:10:50;;;;;;;4.20;0.90;;;12.00;85.20;;;;;;5012795;28;20049;-77
2023/02/04 12:13:21;;;;;;;3.13;1.13;;;11.70;83.80;;;;;;5013192;28;20029;-77
2023/02/04 12:16:04;;;;;;;7.22;3.47;;;11.80;83.70;;;;;;5013170;28;20063;-75
2023/02/04 12:18:31;;;;;;;1.73;1.13;;;11.70;85.50;;;;;;4998972;28;20038;-77
2023/02/04 12:20:58;;;;;;;1.77;1.00;;;11.50;84.40;;;;;;4993316;28;20027;-77
2023/02/04 12:23:25;;;;;;;1.83;0.75;;;11.60;84.50;;;;;;4993113;28;20038;-77
2023/02/04 12:25:51;;;;;;;4.00;1.50;;;11.70;84.90;;;;;;4993265;28;20059;-77
2023/02/04 12:28:17;;;;;;;1.85;1.00;;;11.70;84.40;;;;;;4991670;28;20401;-77
2023/02/04 12:30:43;;;;;;;2.53;1.27;;;11.70;83.60;;;;;;4993432;28;20030;-78
2023/02/04 12:33:09;;;;;;;2.10;1.00;;;11.70;83.30;;;;;;4992876;28;20454;-77
2023/02/04 12:35:34;;;;;;;2.97;1.13;;;11.70;84.60;;;;;;4991884;28;20038;-77
2023/02/04 12:38:00;;;;;;;2.17;0.77;;;11.60;84.00;;;;;;4991457;28;20061;-77
2023/02/04 12:40:26;;;;;;;1.58;1.15;;;11.70;84.60;;;;;;4991669;28;20026;-77
2023/02/04 12:42:52;;;;;;;7.85;1.00;;;11.60;83.90;;;;;;4992430;28;20026;-80
2023/02/04 12:45:18;;;;;;;4.55;1.15;;;11.40;83.70;;;;;;4992911;28;20093;-78
2023/02/04 12:47:44;;;;;;;2.83;1.23;;;11.40;84.80;;;;;;4992569;28;20080;-76
2023/02/04 12:50:12;;;;;;;3.42;1.20;;;11.60;85.50;;;;;;4991432;28;20030;-78
2023/02/04 12:52:38;;;;;;;;;;;11.60;85.20;;;;;;4991885;28;20031;-78
2023/02/04 12:55:06;;;;;;;1.92;0.73;;;11.60;84.90;;;;;;4992532;28;19917;-77